sensor_id;sensor_type;location;lat;lon;timestamp;temperature;humidity
70708;SHT30;58277;47.316;18.908;2022-07-29T00:01:21;23.92;50.41
70708;SHT30;58277;47.316;18.908;2022-07-29T00:03:44;23.92;50.53
70708;SHT30;58277;47.316;18.908;2022-07-29T00:06:07;23.85;50.58
70708;SHT30;58277;47.316;18.908;2022-07-29T00:08:30;23.82;50.75
70708;SHT30;58277;47.316;18.908;2022-07-29T00:10:53;23.82;51.24
70708;SHT30;58277;47.316;18.908;2022-07-29T00:13:15;23.86;50.85
70708;SHT30;58277;47.316;18.908;2022-07-29T00:15:38;23.87;51.02
70708;SHT30;58277;47.316;18.908;2022-07-29T00:18:01;23.89;50.88
70708;SHT30;58277;47.316;18.908;2022-07-29T00:20:23;23.86;51.01
70708;SHT30;58277;47.316;18.908;2022-07-29T00:22:46;23.73;51.37
70708;SHT30;58277;47.316;18.908;2022-07-29T00:25:09;23.68;51.47
70708;SHT30;58277;47.316;18.908;2022-07-29T00:27:32;23.69;51.46
70708;SHT30;58277;47.316;18.908;2022-07-29T00:29:54;23.70;51.59
70708;SHT30;58277;47.316;18.908;2022-07-29T00:32:17;23.65;51.69
70708;SHT30;58277;47.316;18.908;2022-07-29T00:34:40;23.63;51.78
70708;SHT30;58277;47.316;18.908;2022-07-29T00:37:21;23.54;52.14
70708;SHT30;58277;47.316;18.908;2022-07-29T00:39:44;23.61;52.08
70708;SHT30;58277;47.316;18.908;2022-07-29T00:42:07;23.55;52.38
70708;SHT30;58277;47.316;18.908;2022-07-29T00:44:30;23.49;52.33
70708;SHT30;58277;47.316;18.908;2022-07-29T00:46:52;23.51;52.63
70708;SHT30;58277;47.316;18.908;2022-07-29T00:49:15;23.55;52.47
70708;SHT30;58277;47.316;18.908;2022-07-29T00:51:38;23.44;52.70
70708;SHT30;58277;47.316;18.908;2022-07-29T00:54:02;23.48;52.78
70708;SHT30;58277;47.316;18.908;2022-07-29T00:56:25;23.39;52.87
70708;SHT30;58277;47.316;18.908;2022-07-29T00:58:50;23.38;52.97
70708;SHT30;58277;47.316;18.908;2022-07-29T01:01:13;23.41;52.95
70708;SHT30;58277;47.316;18.908;2022-07-29T01:03:36;23.39;53.28
70708;SHT30;58277;47.316;18.908;2022-07-29T01:05:59;23.39;53.30
70708;SHT30;58277;47.316;18.908;2022-07-29T01:08:23;23.45;53.19
70708;SHT30;58277;47.316;18.908;2022-07-29T01:10:46;23.44;53.14
70708;SHT30;58277;47.316;18.908;2022-07-29T01:13:10;23.48;53.19
70708;SHT30;58277;47.316;18.908;2022-07-29T01:15:43;23.38;53.64
70708;SHT30;58277;47.316;18.908;2022-07-29T01:18:16;23.42;53.50
70708;SHT30;58277;47.316;18.908;2022-07-29T01:29:15;23.42;53.52
70708;SHT30;58277;47.316;18.908;2022-07-29T01:32:08;23.48;53.50
70708;SHT30;58277;47.316;18.908;2022-07-29T01:34:53;23.37;53.65
70708;SHT30;58277;47.316;18.908;2022-07-29T01:37:30;23.41;53.67
70708;SHT30;58277;47.316;18.908;2022-07-29T01:39:57;23.44;53.59
70708;SHT30;58277;47.316;18.908;2022-07-29T01:42:43;23.41;53.41
70708;SHT30;58277;47.316;18.908;2022-07-29T01:45:16;23.38;53.71
70708;SHT30;58277;47.316;18.908;2022-07-29T01:50:18;23.32;53.61
70708;SHT30;58277;47.316;18.908;2022-07-29T01:52:56;23.32;53.77
70708;SHT30;58277;47.316;18.908;2022-07-29T01:55:20;23.28;53.77
70708;SHT30;58277;47.316;18.908;2022-07-29T01:57:46;23.22;53.80
70708;SHT30;58277;47.316;18.908;2022-07-29T02:00:10;23.25;54.11
70708;SHT30;58277;47.316;18.908;2022-07-29T02:02:35;23.27;53.57
70708;SHT30;58277;47.316;18.908;2022-07-29T02:05:00;23.25;53.57
70708;SHT30;58277;47.316;18.908;2022-07-29T02:07:26;23.11;53.65
70708;SHT30;58277;47.316;18.908;2022-07-29T02:09:51;23.17;53.66
70708;SHT30;58277;47.316;18.908;2022-07-29T02:12:16;23.14;53.79
70708;SHT30;58277;47.316;18.908;2022-07-29T02:14:43;23.10;53.96
70708;SHT30;58277;47.316;18.908;2022-07-29T02:17:07;23.17;53.61
70708;SHT30;58277;47.316;18.908;2022-07-29T02:19:32;23.10;53.91
70708;SHT30;58277;47.316;18.908;2022-07-29T02:21:56;23.10;53.80
70708;SHT30;58277;47.316;18.908;2022-07-29T02:24:21;23.07;53.98
70708;SHT30;58277;47.316;18.908;2022-07-29T02:26:45;22.96;54.29
70708;SHT30;58277;47.316;18.908;2022-07-29T02:29:08;23.01;54.36
70708;SHT30;58277;47.316;18.908;2022-07-29T02:31:34;22.91;54.60
70708;SHT30;58277;47.316;18.908;2022-07-29T02:33:59;22.99;54.41
70708;SHT30;58277;47.316;18.908;2022-07-29T02:36:23;23.00;54.96
70708;SHT30;58277;47.316;18.908;2022-07-29T02:38:48;22.87;54.66
70708;SHT30;58277;47.316;18.908;2022-07-29T02:41:17;22.82;54.92
70708;SHT30;58277;47.316;18.908;2022-07-29T02:43:41;22.84;55.02
70708;SHT30;58277;47.316;18.908;2022-07-29T02:46:08;22.83;55.23
70708;SHT30;58277;47.316;18.908;2022-07-29T02:51:51;22.82;55.70
70708;SHT30;58277;47.316;18.908;2022-07-29T02:54:44;22.74;56.07
70708;SHT30;58277;47.316;18.908;2022-07-29T02:59:50;22.79;56.26
70708;SHT30;58277;47.316;18.908;2022-07-29T03:02:14;22.74;56.25
70708;SHT30;58277;47.316;18.908;2022-07-29T03:04:39;22.72;56.31
70708;SHT30;58277;47.316;18.908;2022-07-29T03:07:05;22.67;56.30
70708;SHT30;58277;47.316;18.908;2022-07-29T03:09:28;22.70;56.52
70708;SHT30;58277;47.316;18.908;2022-07-29T03:11:51;22.66;56.44
70708;SHT30;58277;47.316;18.908;2022-07-29T03:14:18;22.64;56.47
70708;SHT30;58277;47.316;18.908;2022-07-29T03:16:42;22.63;56.66
70708;SHT30;58277;47.316;18.908;2022-07-29T03:19:05;22.62;56.70
70708;SHT30;58277;47.316;18.908;2022-07-29T03:21:28;22.62;56.59
70708;SHT30;58277;47.316;18.908;2022-07-29T03:23:50;22.56;56.87
70708;SHT30;58277;47.316;18.908;2022-07-29T03:26:13;22.56;56.99
70708;SHT30;58277;47.316;18.908;2022-07-29T03:28:36;22.52;56.98
70708;SHT30;58277;47.316;18.908;2022-07-29T03:31:01;22.52;57.22
70708;SHT30;58277;47.316;18.908;2022-07-29T03:33:23;22.56;56.88
70708;SHT30;58277;47.316;18.908;2022-07-29T03:35:46;22.53;57.05
70708;SHT30;58277;47.316;18.908;2022-07-29T03:38:09;22.52;57.12
70708;SHT30;58277;47.316;18.908;2022-07-29T03:40:54;22.52;57.33
70708;SHT30;58277;47.316;18.908;2022-07-29T03:43:19;22.55;57.28
70708;SHT30;58277;47.316;18.908;2022-07-29T03:45:44;22.53;56.92
70708;SHT30;58277;47.316;18.908;2022-07-29T03:48:10;22.48;57.14
70708;SHT30;58277;47.316;18.908;2022-07-29T03:50:35;22.49;57.73
70708;SHT30;58277;47.316;18.908;2022-07-29T03:52:58;22.53;57.20
70708;SHT30;58277;47.316;18.908;2022-07-29T03:55:21;22.49;57.22
70708;SHT30;58277;47.316;18.908;2022-07-29T03:57:44;22.55;57.12
70708;SHT30;58277;47.316;18.908;2022-07-29T04:00:08;22.56;57.22
70708;SHT30;58277;47.316;18.908;2022-07-29T04:02:32;22.57;57.21
70708;SHT30;58277;47.316;18.908;2022-07-29T04:04:55;22.62;57.13
70708;SHT30;58277;47.316;18.908;2022-07-29T04:07:18;22.59;56.93
70708;SHT30;58277;47.316;18.908;2022-07-29T04:09:41;22.57;57.22
70708;SHT30;58277;47.316;18.908;2022-07-29T04:12:05;22.62;56.91
70708;SHT30;58277;47.316;18.908;2022-07-29T04:14:27;22.62;56.90
70708;SHT30;58277;47.316;18.908;2022-07-29T04:16:50;22.64;56.97
70708;SHT30;58277;47.316;18.908;2022-07-29T04:19:13;22.69;56.94
70708;SHT30;58277;47.316;18.908;2022-07-29T04:21:56;22.70;57.09
70708;SHT30;58277;47.316;18.908;2022-07-29T04:24:19;22.66;56.91
70708;SHT30;58277;47.316;18.908;2022-07-29T04:26:43;22.69;56.70
70708;SHT30;58277;47.316;18.908;2022-07-29T04:29:07;22.69;56.75
70708;SHT30;58277;47.316;18.908;2022-07-29T04:31:30;22.73;56.69
70708;SHT30;58277;47.316;18.908;2022-07-29T04:33:52;22.82;56.83
70708;SHT30;58277;47.316;18.908;2022-07-29T04:36:15;22.99;56.17
70708;SHT30;58277;47.316;18.908;2022-07-29T04:38:51;23.08;56.12
70708;SHT30;58277;47.316;18.908;2022-07-29T04:41:13;23.29;55.58
70708;SHT30;58277;47.316;18.908;2022-07-29T04:43:42;23.52;55.66
70708;SHT30;58277;47.316;18.908;2022-07-29T04:46:06;23.63;54.67
70708;SHT30;58277;47.316;18.908;2022-07-29T04:48:29;23.77;54.92
70708;SHT30;58277;47.316;18.908;2022-07-29T04:50:52;23.69;54.58
70708;SHT30;58277;47.316;18.908;2022-07-29T04:53:14;23.82;54.60
70708;SHT30;58277;47.316;18.908;2022-07-29T04:55:37;24.00;53.52
70708;SHT30;58277;47.316;18.908;2022-07-29T04:58:00;24.23;53.17
70708;SHT30;58277;47.316;18.908;2022-07-29T05:00:23;24.40;52.24
70708;SHT30;58277;47.316;18.908;2022-07-29T05:02:54;24.48;51.82
70708;SHT30;58277;47.316;18.908;2022-07-29T05:05:17;24.54;52.60
70708;SHT30;58277;47.316;18.908;2022-07-29T05:07:40;24.57;51.58
70708;SHT30;58277;47.316;18.908;2022-07-29T05:10:03;24.71;52.17
70708;SHT30;58277;47.316;18.908;2022-07-29T05:12:26;24.71;52.00
70708;SHT30;58277;47.316;18.908;2022-07-29T05:14:50;24.81;51.54
70708;SHT30;58277;47.316;18.908;2022-07-29T05:17:13;24.60;52.15
70708;SHT30;58277;47.316;18.908;2022-07-29T05:19:36;24.68;51.49
70708;SHT30;58277;47.316;18.908;2022-07-29T05:22:01;24.67;51.44
70708;SHT30;58277;47.316;18.908;2022-07-29T05:24:23;24.76;51.74
70708;SHT30;58277;47.316;18.908;2022-07-29T05:26:51;24.78;51.55
70708;SHT30;58277;47.316;18.908;2022-07-29T05:29:14;24.65;51.89
70708;SHT30;58277;47.316;18.908;2022-07-29T05:31:57;24.54;52.15
70708;SHT30;58277;47.316;18.908;2022-07-29T05:34:19;24.81;51.62
70708;SHT30;58277;47.316;18.908;2022-07-29T05:36:42;25.00;50.86
70708;SHT30;58277;47.316;18.908;2022-07-29T05:39:05;25.27;51.95
70708;SHT30;58277;47.316;18.908;2022-07-29T05:41:27;25.38;50.67
70708;SHT30;58277;47.316;18.908;2022-07-29T05:43:51;25.23;50.39
70708;SHT30;58277;47.316;18.908;2022-07-29T05:46:14;25.58;49.15
70708;SHT30;58277;47.316;18.908;2022-07-29T05:48:37;25.73;49.27
70708;SHT30;58277;47.316;18.908;2022-07-29T05:51:01;26.05;47.53
70708;SHT30;58277;47.316;18.908;2022-07-29T05:53:24;25.71;48.50
70708;SHT30;58277;47.316;18.908;2022-07-29T05:56:07;25.55;48.88
70708;SHT30;58277;47.316;18.908;2022-07-29T05:58:30;25.37;49.02
70708;SHT30;58277;47.316;18.908;2022-07-29T06:00:53;25.60;48.61
70708;SHT30;58277;47.316;18.908;2022-07-29T06:03:16;25.77;48.62
70708;SHT30;58277;47.316;18.908;2022-07-29T06:05:38;25.92;48.37
70708;SHT30;58277;47.316;18.908;2022-07-29T06:08:01;25.89;49.13
70708;SHT30;58277;47.316;18.908;2022-07-29T06:10:24;25.92;48.41
70708;SHT30;58277;47.316;18.908;2022-07-29T06:12:48;26.05;49.02
70708;SHT30;58277;47.316;18.908;2022-07-29T06:15:10;25.99;48.33
70708;SHT30;58277;47.316;18.908;2022-07-29T06:17:33;26.20;48.45
70708;SHT30;58277;47.316;18.908;2022-07-29T06:19:56;26.50;48.08
70708;SHT30;58277;47.316;18.908;2022-07-29T06:22:19;26.57;47.35
70708;SHT30;58277;47.316;18.908;2022-07-29T06:24:42;26.60;47.63
70708;SHT30;58277;47.316;18.908;2022-07-29T06:27:06;26.60;47.60
70708;SHT30;58277;47.316;18.908;2022-07-29T06:29:28;26.28;48.07
70708;SHT30;58277;47.316;18.908;2022-07-29T06:31:51;26.16;49.11
70708;SHT30;58277;47.316;18.908;2022-07-29T06:34:14;26.19;48.76
70708;SHT30;58277;47.316;18.908;2022-07-29T06:36:37;26.15;48.62
70708;SHT30;58277;47.316;18.908;2022-07-29T06:39:04;26.25;48.42
70708;SHT30;58277;47.316;18.908;2022-07-29T06:41:27;26.35;48.79
70708;SHT30;58277;47.316;18.908;2022-07-29T06:43:49;26.60;48.82
70708;SHT30;58277;47.316;18.908;2022-07-29T06:46:19;26.70;47.87
70708;SHT30;58277;47.316;18.908;2022-07-29T06:48:42;26.97;47.74
70708;SHT30;58277;47.316;18.908;2022-07-29T06:51:05;27.26;46.71
70708;SHT30;58277;47.316;18.908;2022-07-29T06:53:28;27.28;46.84
70708;SHT30;58277;47.316;18.908;2022-07-29T06:55:51;27.25;46.79
70708;SHT30;58277;47.316;18.908;2022-07-29T06:58:15;26.97;47.09
70708;SHT30;58277;47.316;18.908;2022-07-29T07:00:49;27.06;47.47
70708;SHT30;58277;47.316;18.908;2022-07-29T07:03:12;27.02;48.29
70708;SHT30;58277;47.316;18.908;2022-07-29T07:05:35;27.06;48.24
70708;SHT30;58277;47.316;18.908;2022-07-29T07:07:58;27.15;47.16
70708;SHT30;58277;47.316;18.908;2022-07-29T07:10:20;27.39;46.98
70708;SHT30;58277;47.316;18.908;2022-07-29T07:12:45;27.29;46.86
70708;SHT30;58277;47.316;18.908;2022-07-29T07:15:08;27.16;47.18
70708;SHT30;58277;47.316;18.908;2022-07-29T07:17:30;27.26;46.84
70708;SHT30;58277;47.316;18.908;2022-07-29T07:19:53;27.09;47.08
70708;SHT30;58277;47.316;18.908;2022-07-29T07:22:16;27.31;47.61
70708;SHT30;58277;47.316;18.908;2022-07-29T07:24:38;27.33;46.88
70708;SHT30;58277;47.316;18.908;2022-07-29T07:27:01;27.25;47.55
70708;SHT30;58277;47.316;18.908;2022-07-29T07:29:24;27.33;47.30
70708;SHT30;58277;47.316;18.908;2022-07-29T07:31:47;27.38;46.82
70708;SHT30;58277;47.316;18.908;2022-07-29T07:34:09;27.42;46.60
70708;SHT30;58277;47.316;18.908;2022-07-29T07:36:32;27.59;46.47
70708;SHT30;58277;47.316;18.908;2022-07-29T07:38:55;28.18;45.82
70708;SHT30;58277;47.316;18.908;2022-07-29T07:41:18;28.63;44.28
70708;SHT30;58277;47.316;18.908;2022-07-29T07:43:40;28.42;44.92
70708;SHT30;58277;47.316;18.908;2022-07-29T07:46:04;28.27;45.53
70708;SHT30;58277;47.316;18.908;2022-07-29T07:48:26;28.11;45.50
70708;SHT30;58277;47.316;18.908;2022-07-29T07:50:49;28.07;45.99
70708;SHT30;58277;47.316;18.908;2022-07-29T07:53:13;28.04;45.23
70708;SHT30;58277;47.316;18.908;2022-07-29T07:55:43;28.18;46.12
70708;SHT30;58277;47.316;18.908;2022-07-29T07:58:26;28.24;45.77
70708;SHT30;58277;47.316;18.908;2022-07-29T08:00:49;28.17;45.14
70708;SHT30;58277;47.316;18.908;2022-07-29T08:03:12;28.27;45.20
70708;SHT30;58277;47.316;18.908;2022-07-29T08:05:38;28.32;44.21
70708;SHT30;58277;47.316;18.908;2022-07-29T08:08:01;28.38;45.13
70708;SHT30;58277;47.316;18.908;2022-07-29T08:10:23;28.37;44.15
70708;SHT30;58277;47.316;18.908;2022-07-29T08:13:06;28.48;44.20
70708;SHT30;58277;47.316;18.908;2022-07-29T08:15:29;28.55;44.24
70708;SHT30;58277;47.316;18.908;2022-07-29T08:17:52;28.66;44.91
70708;SHT30;58277;47.316;18.908;2022-07-29T08:20:14;28.58;44.12
70708;SHT30;58277;47.316;18.908;2022-07-29T08:22:37;28.76;44.44
70708;SHT30;58277;47.316;18.908;2022-07-29T08:25:00;28.86;44.02
70708;SHT30;58277;47.316;18.908;2022-07-29T08:27:23;28.86;44.00
70708;SHT30;58277;47.316;18.908;2022-07-29T08:30:05;28.99;44.09
70708;SHT30;58277;47.316;18.908;2022-07-29T08:32:29;29.03;43.18
70708;SHT30;58277;47.316;18.908;2022-07-29T08:35:13;28.83;42.28
70708;SHT30;58277;47.316;18.908;2022-07-29T08:37:36;28.82;42.29
70708;SHT30;58277;47.316;18.908;2022-07-29T08:39:58;28.97;42.92
70708;SHT30;58277;47.316;18.908;2022-07-29T08:42:21;29.17;42.85
70708;SHT30;58277;47.316;18.908;2022-07-29T08:44:44;29.38;41.47
70708;SHT30;58277;47.316;18.908;2022-07-29T08:47:07;29.45;41.73
70708;SHT30;58277;47.316;18.908;2022-07-29T08:49:32;29.45;41.63
70708;SHT30;58277;47.316;18.908;2022-07-29T08:51:55;29.61;41.50
70708;SHT30;58277;47.316;18.908;2022-07-29T08:54:21;29.88;41.62
70708;SHT30;58277;47.316;18.908;2022-07-29T08:56:48;30.03;40.56
70708;SHT30;58277;47.316;18.908;2022-07-29T08:59:13;29.83;40.01
70708;SHT30;58277;47.316;18.908;2022-07-29T09:01:37;29.93;40.33
70708;SHT30;58277;47.316;18.908;2022-07-29T09:04:10;29.85;40.81
70708;SHT30;58277;47.316;18.908;2022-07-29T09:06:34;29.66;41.99
70708;SHT30;58277;47.316;18.908;2022-07-29T09:08:59;29.90;40.16
70708;SHT30;58277;47.316;18.908;2022-07-29T09:11:22;30.13;40.67
70708;SHT30;58277;47.316;18.908;2022-07-29T09:13:45;30.13;39.85
70708;SHT30;58277;47.316;18.908;2022-07-29T09:16:08;30.38;39.41
70708;SHT30;58277;47.316;18.908;2022-07-29T09:18:40;30.60;39.77
70708;SHT30;58277;47.316;18.908;2022-07-29T09:21:05;30.82;38.71
70708;SHT30;58277;47.316;18.908;2022-07-29T09:24:18;30.79;37.92
70708;SHT30;58277;47.316;18.908;2022-07-29T09:26:43;30.86;37.67
70708;SHT30;58277;47.316;18.908;2022-07-29T09:29:14;30.75;37.77
70708;SHT30;58277;47.316;18.908;2022-07-29T09:31:39;30.67;38.01
70708;SHT30;58277;47.316;18.908;2022-07-29T09:34:03;30.64;37.15
70708;SHT30;58277;47.316;18.908;2022-07-29T09:36:27;30.74;37.24
70708;SHT30;58277;47.316;18.908;2022-07-29T09:39:02;30.86;36.51
70708;SHT30;58277;47.316;18.908;2022-07-29T09:41:26;31.30;36.48
70708;SHT30;58277;47.316;18.908;2022-07-29T09:43:59;31.39;37.43
70708;SHT30;58277;47.316;18.908;2022-07-29T09:46:22;31.71;36.50
70708;SHT30;58277;47.316;18.908;2022-07-29T09:49:05;31.88;36.61
70708;SHT30;58277;47.316;18.908;2022-07-29T09:51:30;31.77;35.23
70708;SHT30;58277;47.316;18.908;2022-07-29T09:53:59;31.89;36.22
70708;SHT30;58277;47.316;18.908;2022-07-29T09:56:39;31.91;35.56
70708;SHT30;58277;47.316;18.908;2022-07-29T09:59:08;31.91;35.50
70708;SHT30;58277;47.316;18.908;2022-07-29T10:01:31;31.88;35.78
70708;SHT30;58277;47.316;18.908;2022-07-29T10:03:53;32.05;35.56
70708;SHT30;58277;47.316;18.908;2022-07-29T10:06:16;32.05;35.32
70708;SHT30;58277;47.316;18.908;2022-07-29T10:08:41;31.85;33.99
70708;SHT30;58277;47.316;18.908;2022-07-29T10:11:15;31.91;34.18
70708;SHT30;58277;47.316;18.908;2022-07-29T10:13:40;32.09;33.96
70708;SHT30;58277;47.316;18.908;2022-07-29T10:16:03;32.29;34.60
70708;SHT30;58277;47.316;18.908;2022-07-29T10:18:26;32.19;33.02
70708;SHT30;58277;47.316;18.908;2022-07-29T10:20:49;32.18;32.87
70708;SHT30;58277;47.316;18.908;2022-07-29T10:23:13;32.24;33.29
70708;SHT30;58277;47.316;18.908;2022-07-29T10:25:36;32.31;32.54
70708;SHT30;58277;47.316;18.908;2022-07-29T10:27:59;32.22;33.38
70708;SHT30;58277;47.316;18.908;2022-07-29T10:30:23;32.56;32.34
70708;SHT30;58277;47.316;18.908;2022-07-29T10:38:45;32.92;31.54
70708;SHT30;58277;47.316;18.908;2022-07-29T10:44:12;32.96;32.11
70708;SHT30;58277;47.316;18.908;2022-07-29T10:46:40;32.91;31.43
70708;SHT30;58277;47.316;18.908;2022-07-29T10:49:12;32.74;32.09
70708;SHT30;58277;47.316;18.908;2022-07-29T10:52:06;32.62;31.34
70708;SHT30;58277;47.316;18.908;2022-07-29T10:54:36;32.64;30.82
70708;SHT30;58277;47.316;18.908;2022-07-29T10:57:27;32.71;31.09
70708;SHT30;58277;47.316;18.908;2022-07-29T11:05:13;33.29;32.08
70708;SHT30;58277;47.316;18.908;2022-07-29T11:07:38;33.14;31.49
70708;SHT30;58277;47.316;18.908;2022-07-29T11:15:00;32.74;30.97
70708;SHT30;58277;47.316;18.908;2022-07-29T11:17:25;32.98;30.77
70708;SHT30;58277;47.316;18.908;2022-07-29T11:22:58;32.60;32.62
70708;SHT30;58277;47.316;18.908;2022-07-29T11:25:21;32.70;31.93
70708;SHT30;58277;47.316;18.908;2022-07-29T11:28:13;33.00;31.13
70708;SHT30;58277;47.316;18.908;2022-07-29T11:30:48;33.22;31.35
70708;SHT30;58277;47.316;18.908;2022-07-29T11:33:27;33.34;31.80
70708;SHT30;58277;47.316;18.908;2022-07-29T11:36:12;33.42;31.82
70708;SHT30;58277;47.316;18.908;2022-07-29T11:38:38;33.12;31.41
70708;SHT30;58277;47.316;18.908;2022-07-29T11:41:29;33.17;30.50
70708;SHT30;58277;47.316;18.908;2022-07-29T11:43:59;33.12;31.05
70708;SHT30;58277;47.316;18.908;2022-07-29T11:46:45;33.38;30.73
70708;SHT30;58277;47.316;18.908;2022-07-29T11:49:09;33.75;30.76
70708;SHT30;58277;47.316;18.908;2022-07-29T11:51:37;33.86;30.45
70708;SHT30;58277;47.316;18.908;2022-07-29T11:54:11;33.93;30.19
70708;SHT30;58277;47.316;18.908;2022-07-29T11:56:39;34.21;29.38
70708;SHT30;58277;47.316;18.908;2022-07-29T11:59:06;34.40;28.02
70708;SHT30;58277;47.316;18.908;2022-07-29T12:01:36;33.93;27.94
70708;SHT30;58277;47.316;18.908;2022-07-29T12:04:12;33.90;29.91
70708;SHT30;58277;47.316;18.908;2022-07-29T12:06:35;33.72;28.22
70708;SHT30;58277;47.316;18.908;2022-07-29T12:08:58;33.82;29.29
70708;SHT30;58277;47.316;18.908;2022-07-29T12:11:22;33.63;30.29
70708;SHT30;58277;47.316;18.908;2022-07-29T12:13:45;33.56;30.77
70708;SHT30;58277;47.316;18.908;2022-07-29T12:16:10;33.07;30.70
70708;SHT30;58277;47.316;18.908;2022-07-29T12:18:36;33.08;30.68
70708;SHT30;58277;47.316;18.908;2022-07-29T12:21:00;32.97;31.14
70708;SHT30;58277;47.316;18.908;2022-07-29T12:23:26;32.80;31.39
70708;SHT30;58277;47.316;18.908;2022-07-29T12:25:57;32.71;31.06
70708;SHT30;58277;47.316;18.908;2022-07-29T12:28:20;32.98;31.48
70708;SHT30;58277;47.316;18.908;2022-07-29T12:30:49;33.28;30.00
70708;SHT30;58277;47.316;18.908;2022-07-29T12:33:16;33.17;31.42
70708;SHT30;58277;47.316;18.908;2022-07-29T12:35:41;33.25;31.09
70708;SHT30;58277;47.316;18.908;2022-07-29T12:38:04;33.24;31.04
70708;SHT30;58277;47.316;18.908;2022-07-29T12:40:27;33.32;30.20
70708;SHT30;58277;47.316;18.908;2022-07-29T12:43:09;33.29;30.31
70708;SHT30;58277;47.316;18.908;2022-07-29T12:45:31;33.07;30.71
70708;SHT30;58277;47.316;18.908;2022-07-29T12:47:54;32.96;30.62
70708;SHT30;58277;47.316;18.908;2022-07-29T12:50:17;32.86;30.24
70708;SHT30;58277;47.316;18.908;2022-07-29T12:52:45;32.73;30.89
70708;SHT30;58277;47.316;18.908;2022-07-29T12:55:08;32.57;31.25
70708;SHT30;58277;47.316;18.908;2022-07-29T12:57:31;32.40;32.69
70708;SHT30;58277;47.316;18.908;2022-07-29T13:00:11;32.24;31.70
70708;SHT30;58277;47.316;18.908;2022-07-29T13:02:35;32.64;31.36
70708;SHT30;58277;47.316;18.908;2022-07-29T13:04:59;32.81;31.85
70708;SHT30;58277;47.316;18.908;2022-07-29T13:07:30;32.86;30.38
70708;SHT30;58277;47.316;18.908;2022-07-29T13:10:18;32.79;30.22
70708;SHT30;58277;47.316;18.908;2022-07-29T13:13:11;32.87;30.09
70708;SHT30;58277;47.316;18.908;2022-07-29T13:15:34;33.15;29.93
70708;SHT30;58277;47.316;18.908;2022-07-29T13:17:58;33.03;30.33
70708;SHT30;58277;47.316;18.908;2022-07-29T13:20:24;33.21;30.93
70708;SHT30;58277;47.316;18.908;2022-07-29T13:22:47;32.91;30.61
70708;SHT30;58277;47.316;18.908;2022-07-29T13:25:10;32.77;30.60
70708;SHT30;58277;47.316;18.908;2022-07-29T13:27:35;32.76;30.79
70708;SHT30;58277;47.316;18.908;2022-07-29T13:30:00;32.64;30.73
70708;SHT30;58277;47.316;18.908;2022-07-29T13:32:25;32.56;30.74
70708;SHT30;58277;47.316;18.908;2022-07-29T13:34:50;32.49;30.51
70708;SHT30;58277;47.316;18.908;2022-07-29T13:37:12;32.42;30.93
70708;SHT30;58277;47.316;18.908;2022-07-29T13:39:36;32.76;30.67
70708;SHT30;58277;47.316;18.908;2022-07-29T13:41:59;32.88;30.69
70708;SHT30;58277;47.316;18.908;2022-07-29T13:44:22;33.10;30.09
70708;SHT30;58277;47.316;18.908;2022-07-29T13:46:45;33.11;30.28
70708;SHT30;58277;47.316;18.908;2022-07-29T13:49:08;33.04;30.70
70708;SHT30;58277;47.316;18.908;2022-07-29T13:51:31;32.86;31.59
70708;SHT30;58277;47.316;18.908;2022-07-29T13:53:53;32.60;31.83
70708;SHT30;58277;47.316;18.908;2022-07-29T13:56:16;32.31;32.36
70708;SHT30;58277;47.316;18.908;2022-07-29T13:58:39;32.25;31.74
70708;SHT30;58277;47.316;18.908;2022-07-29T14:01:02;32.19;31.98
70708;SHT30;58277;47.316;18.908;2022-07-29T14:03:25;32.43;31.82
70708;SHT30;58277;47.316;18.908;2022-07-29T14:05:47;32.64;31.21
70708;SHT30;58277;47.316;18.908;2022-07-29T14:08:10;32.43;31.57
70708;SHT30;58277;47.316;18.908;2022-07-29T14:10:33;32.33;31.82
70708;SHT30;58277;47.316;18.908;2022-07-29T14:12:55;32.37;29.87
70708;SHT30;58277;47.316;18.908;2022-07-29T14:15:18;32.73;30.14
70708;SHT30;58277;47.316;18.908;2022-07-29T14:17:41;33.03;28.93
70708;SHT30;58277;47.316;18.908;2022-07-29T14:20:04;33.18;29.43
70708;SHT30;58277;47.316;18.908;2022-07-29T14:22:27;32.94;29.34
70708;SHT30;58277;47.316;18.908;2022-07-29T14:24:50;32.90;29.43
70708;SHT30;58277;47.316;18.908;2022-07-29T14:27:12;33.04;30.81
70708;SHT30;58277;47.316;18.908;2022-07-29T14:29:36;33.11;30.26
70708;SHT30;58277;47.316;18.908;2022-07-29T14:32:00;33.38;29.60
70708;SHT30;58277;47.316;18.908;2022-07-29T14:34:24;33.31;31.53
70708;SHT30;58277;47.316;18.908;2022-07-29T14:36:46;33.28;29.86
70708;SHT30;58277;47.316;18.908;2022-07-29T14:39:09;33.15;30.44
70708;SHT30;58277;47.316;18.908;2022-07-29T14:41:32;33.37;29.79
70708;SHT30;58277;47.316;18.908;2022-07-29T14:43:55;33.27;30.04
70708;SHT30;58277;47.316;18.908;2022-07-29T14:46:17;33.54;29.41
70708;SHT30;58277;47.316;18.908;2022-07-29T14:48:40;33.46;29.44
70708;SHT30;58277;47.316;18.908;2022-07-29T14:51:03;33.46;29.60
70708;SHT30;58277;47.316;18.908;2022-07-29T14:53:26;33.63;29.17
70708;SHT30;58277;47.316;18.908;2022-07-29T14:55:50;33.77;30.01
70708;SHT30;58277;47.316;18.908;2022-07-29T14:58:13;33.66;29.28
70708;SHT30;58277;47.316;18.908;2022-07-29T15:00:38;33.61;29.13
70708;SHT30;58277;47.316;18.908;2022-07-29T15:03:00;33.65;29.34
70708;SHT30;58277;47.316;18.908;2022-07-29T15:05:25;33.54;29.20
70708;SHT30;58277;47.316;18.908;2022-07-29T15:07:47;33.70;29.72
70708;SHT30;58277;47.316;18.908;2022-07-29T15:10:10;33.88;28.98
70708;SHT30;58277;47.316;18.908;2022-07-29T15:12:36;33.83;28.60
70708;SHT30;58277;47.316;18.908;2022-07-29T15:14:59;33.77;28.02
70708;SHT30;58277;47.316;18.908;2022-07-29T15:17:22;33.72;27.84
70708;SHT30;58277;47.316;18.908;2022-07-29T15:19:44;33.46;28.45
70708;SHT30;58277;47.316;18.908;2022-07-29T15:22:07;33.29;28.61
70708;SHT30;58277;47.316;18.908;2022-07-29T15:24:30;33.07;29.38
70708;SHT30;58277;47.316;18.908;2022-07-29T15:26:52;32.92;29.76
70708;SHT30;58277;47.316;18.908;2022-07-29T15:29:15;32.90;29.96
70708;SHT30;58277;47.316;18.908;2022-07-29T15:31:38;33.11;29.94
70708;SHT30;58277;47.316;18.908;2022-07-29T15:34:02;33.31;29.90
70708;SHT30;58277;47.316;18.908;2022-07-29T15:36:28;33.45;29.44
70708;SHT30;58277;47.316;18.908;2022-07-29T15:39:10;33.24;30.14
70708;SHT30;58277;47.316;18.908;2022-07-29T15:41:33;33.06;30.12
70708;SHT30;58277;47.316;18.908;2022-07-29T15:43:56;32.97;30.19
70708;SHT30;58277;47.316;18.908;2022-07-29T15:46:19;33.34;30.03